Izumo Airport
RJOC : now visible

Airfield :











YOU CAN JOIN US ON...

 
LOGIN :

Register | Disclaimer

   EN    FR    IT 

 









Legend :    VFR   Marginal VFR   IFR   Intensive IFR   Very Intensive IFR
Visi :
Ceiling :
>= 8 km
>= 3000ft
5 to 8 km
1000 to 3000 ft
1500m to 5 km
500 to 1000 ft
800 to 1500m
200 to 500 ft
< 800m
< 200 ft
Symbols :   Thunderstorms  Fog  Heavy snow  Heavy precipitations  Wind > 20 kt






- Airport Elevation : 15 ft
- IATA code : IZO


RJOC - Izumo

CURRENT METAR :
  • 180300Z 25010KT 9999 VCSH FEW015 SCT030 BKN050 05/M02 Q1021

EXPIRED METARs :
  • 180200Z 27007KT 9999 -SHRASN FEW015 SCT025 BKN045 04/M02 Q1021
  • 180100Z 27006KT 210V300 9999 VCSH FEW010 SCT030 BKN040 02/M01 Q1020

TAF AMD TAF RJOC
Valid from the 18 at 00:00 until the 19 at 06:00 UTC


172329Z 1800/1906 28015KT 9999 FEW015 SCT025 BKN040
TEMPO 1800/1801 4000 -TSSNGS FEW005 BKN008 BKN015 FEW015CB
TEMPO 1809/1812 4000 -SHRASN BR
BECMG 1810/1812 17007KT



MET'MAP, your aeronautical weather chart ! - Copyright ORBIFLY December 2007 - Disclaimer

ORBIFLY MET'MAP TEAM :

Programming & Development : Alexandra Zaïnal
Concept & original design : Baudouin d'Aumeries
Assistance for programming : Marc-Olivier Méhu
Technical & hardware support : Manuel Goepfert

Contact : metmap@orbifly.com




SOURCES & CREDITS :

   NOAA       Earth
Advisory